Portada
METAR-TAF:

METAR-TAF

Aeroports :

Aeroport Internacional de Phu Quoc

Phu Quoc, Vietnam

latitud: 10-10-18N, longitud: 103-59-28E, altitud: 11 m

Observació

L'informe es va fer fa 29 minuts, a les 02:30 UTC
Vent 8 kt del Sud/Sud-Oest
Temperatura 32°C
Humitat 71%
Pressió 1010 hPa
Visibilitat 10 km o més
Núvols disperses a una alçada de 1500 ft

METAR: VVPQ 200230Z 21008KT 9999 SCT015 32/26 Q1010 NOSIG

Hora: 09:59 (02:59 UTC)

Pronòstic

L'informe es va fer fa 3 hores i 59 minuts, a les 23:00 UTC
Pronòstic vàlid del 20 a les 00 UTC al 20 a les 24 UTC
Vent 3 kt amb direcció variable
Visibilitat 10 km o més
Núvols disperses a una alçada de 1500 ft
Núvols disperses a una alçada de 4000 ft
Evolucionant progressivament
l' 20 a les 03 UTC al 20 a les 04 UTC
Vent 10 kt del Sud-Oest

TAF: VVPQ 192300Z 2000/2024 VRB03KT 9999 SCT015 SCT040 BECMG 2003/2004 22010KT

Observacions i pronòstics meteorològics de més de 4000 aeroports (METAR i TAF).

Les estacions disponibles són els punts grocs i vermells al mapa.

Posi el ratolí al punt desitjat per veure el nom de l'estació.

Feu clic per veure les observacions i els pronòstics meteorològics.

Per canviar el mapa: feu clic els botons verds amb una creu de color negre per apropar; al botó verd amb un guió per allunyar la imatge; o en les fletxes verdes per a mapes adjacents.


METAR-TAF: